Terminal Aerodrome Forecast
Issued by NWS Shreveport, LA

Home | Current Version | Previous Version | Text Only | Print | Product List | Glossary On
Versions: 1 2 3 4 5 6 7 8 9 10 11 12 13 14
623
FTUS44 KSHV 291216 AAA
TAFTXK
TAF AMD
KTXK 291216Z 2912/3012 14007KT P6SM BKN015
      TEMPO 2912/2914 BKN004
     FM291400 15007KT P6SM BKN025
      TEMPO 2914/2916 BKN015
     FM291600 15007KT P6SM SCT040 SCT250
     FM300000 16006KT P6SM SCT050 SCT250
     FM300800 17008KT P6SM BKN025
      TEMPO 3008/3012 BKN015=

USA.gov is the U.S. government's official web portal to all federal, state and local government web resources and services.